Ramsey, Indiana
Current Conditions -  °F | °C
As of 4:56 AM on Sunday 23 Nov 2014 (Local Time) from KSDF Reporting Station
Overcast Overcast  
Wind Chill: 56°   Ceiling: 3600
Heat Index: 56°   Visibility: 10mi
Dew Point: 38°   Wind: 10mph
Humidity: 51%   Direction: 180°S
Pressure: 29.99"   Gusts: NA
Location:  38.32°N, 86.15°W
Report Text: KSDF 230956Z 18009KT 10SM BKN036 BKN045 OVC055 13/03 A2999 RMK AO2 SLP153 T01330033
Loading
Personal Weather Stations






























Interactive Weather Map New forecast layout! Learn more

10-Day Weather Forecast

Advertisements
Track Severe Weather on mobile